Albany, New York
Traffic Map
Current Weather Conditions
Albany, New York
Few Clouds
Few Clouds
11°
Feels Like: 11°
Wind Chill: 11° Ceiling: Unl
Heat Index: 11° Visibility: 10mi
Dew Point: Wind: 0mph
Humidity: 84% Direction: ° ()
Pressure: 29.91in Gusts: 0mph
Raw Report DataKALB 161251Z 00000KT 10SM FEW030 FEW070 FEW260 M12/M14 A2991 RMK AO2 SLP135 I1000 T11171139
Traffic Incident Summary
Active as of:
Severity:
Category:
InformationThere was an issue retrieving the traffic information for this location. Please try a different location or try again shortly.
Advertisements